Карточка аэропорта UIUU

Внимание!
Информация на этой странице в стадии наполнения.
Если вы не увидели какой-то информации, или заметили неточность - пожалуйста сообщите нам!
Спасибо!
Команда RU-STAFF
Название аэропортаМухино
Название аэропорта (англ.)Mukhino
Превышение1699 ft. (517.9 m.)
Координаты51°48.45', 107°26.4'
Высота перехода1800m
Эшелон переходаFL090
Коды ответчика2701-2717
Зона ОрВДИркутск РПИ (UIII)
Данные METARUIUU 251130Z VRB01MPS 9999 SCT050CB 28/11 Q1007 R26/60D NOSIG RMK QFE711/0948
Проноз погоды (TAF)UIUU 251100Z 2512/2612 30003G08MPS 9999 SCT040CB TEMPO 2512/2521 VRB08MPS -TSRA
NOTAMshow/hide NOTAM
AWOS   TABLE

Информация о ВПП

ВПП Длина ВПП (м.) Покрытие Курс ВПП Частота ILS
083400Цементобетон83111.3
263400Цементобетон263110.3

Диспетчерские позиции

Позывной Наименование органа УВД Частота
UIUU_APPУлан-Удэ-Подход129.300
UIUU_TWRУлан-Удэ-Вышка118.200



Спутниковое изображение